createdAt,value
2019-01-12T00:01:28.579Z,95.46
2019-01-12T00:03:56.952Z,95.52
2019-01-12T00:06:25.203Z,95.52
2019-01-12T00:08:53.615Z,95.46
2019-01-12T00:11:22.061Z,95.46
2019-01-12T00:13:50.506Z,95.38
2019-01-12T00:16:18.851Z,95.26
2019-01-12T00:18:47.257Z,95.21
2019-01-12T00:21:15.733Z,95.21
2019-01-12T00:23:44.176Z,95.28
2019-01-12T00:26:12.614Z,95.28
2019-01-12T00:28:41.001Z,95.27
2019-01-12T00:31:09.352Z,95.28
2019-01-12T00:33:37.798Z,95.30
2019-01-12T00:36:06.168Z,95.33
2019-01-12T00:38:34.509Z,95.30
2019-01-12T00:41:02.997Z,95.26
2019-01-12T00:43:31.305Z,95.10
2019-01-12T00:45:59.645Z,95.08
2019-01-12T00:48:28.073Z,95.12
2019-01-12T00:50:56.541Z,95.10
2019-01-12T00:53:24.939Z,95.17
2019-01-12T00:55:53.335Z,95.43
2019-01-12T00:58:21.750Z,95.55
2019-01-12T01:00:50.223Z,95.64
2019-01-12T01:03:18.659Z,95.75
2019-01-12T01:05:47.114Z,95.78
2019-01-12T01:08:15.375Z,95.83
2019-01-12T01:10:43.948Z,95.90
2019-01-12T01:13:12.457Z,95.94
2019-01-12T01:15:40.893Z,95.91
2019-01-12T01:18:09.193Z,96.04
2019-01-12T01:20:37.608Z,96.18
2019-01-12T01:23:06.053Z,96.22
2019-01-12T01:25:34.590Z,96.40
2019-01-12T01:28:02.968Z,96.53
2019-01-12T01:30:31.460Z,96.61
2019-01-12T01:32:59.809Z,96.57
2019-01-12T01:35:28.337Z,96.57
2019-01-12T01:37:56.677Z,96.64
2019-01-12T01:40:25.227Z,96.64
2019-01-12T01:42:53.629Z,96.68
2019-01-12T01:45:21.989Z,96.70
2019-01-12T01:47:50.322Z,96.70
2019-01-12T01:50:18.834Z,96.57
2019-01-12T01:52:48.363Z,96.43
2019-01-12T01:55:17.315Z,96.28
2019-01-12T01:57:45.613Z,96.02
2019-01-12T02:00:16.703Z,95.92
2019-01-12T02:02:45.271Z,95.99
2019-01-12T02:05:13.540Z,96.03
2019-01-12T02:07:41.815Z,96.05
2019-01-12T02:10:13.521Z,95.91
2019-01-12T02:12:41.831Z,95.91
2019-01-12T02:15:12.768Z,95.90
2019-01-12T02:17:41.163Z,95.90
2019-01-12T02:20:09.769Z,95.85
2019-01-12T02:22:38.293Z,95.87
2019-01-12T02:25:09.763Z,95.82
2019-01-12T02:27:38.204Z,95.82
2019-01-12T02:30:09.852Z,95.81
2019-01-12T02:32:38.283Z,95.75
2019-01-12T02:35:06.667Z,95.77
2019-01-12T02:37:35.024Z,95.71
2019-01-12T02:40:04.747Z,95.82
2019-01-12T02:42:33.129Z,95.90
2019-01-12T02:45:01.646Z,95.90
2019-01-12T02:47:29.889Z,95.75
2019-01-12T02:49:58.331Z,95.70
2019-01-12T02:52:26.828Z,95.63
2019-01-12T02:54:55.290Z,95.56
2019-01-12T02:57:23.726Z,95.53
2019-01-12T02:59:52.279Z,95.45
2019-01-12T03:02:20.661Z,95.41
2019-01-12T03:04:49.077Z,95.40
2019-01-12T03:07:17.448Z,95.32
2019-01-12T03:09:45.805Z,95.29
2019-01-12T03:12:14.203Z,95.19
2019-01-12T03:14:42.641Z,94.99
2019-01-12T03:17:11.091Z,94.96
2019-01-12T03:19:39.604Z,94.94
2019-01-12T03:22:07.962Z,94.88
2019-01-12T03:24:36.419Z,94.88
2019-01-12T03:27:04.950Z,94.98
2019-01-12T03:29:33.223Z,94.89
2019-01-12T03:32:01.792Z,94.82
2019-01-12T03:34:30.095Z,94.86
2019-01-12T03:36:58.574Z,94.83
2019-01-12T03:39:26.935Z,94.82
2019-01-12T03:41:55.276Z,94.89
2019-01-12T03:44:23.879Z,94.90
2019-01-12T03:46:52.137Z,94.88
2019-01-12T03:49:20.574Z,95.12
2019-01-12T03:51:49.018Z,95.30
2019-01-12T03:54:17.283Z,95.54
2019-01-12T03:56:45.602Z,95.60
2019-01-12T03:59:14.012Z,95.65
2019-01-12T04:01:42.413Z,95.73
2019-01-12T04:04:11.114Z,95.75
2019-01-12T04:06:39.615Z,95.78
2019-01-12T04:09:08.703Z,95.76
2019-01-12T04:11:37.112Z,95.78
2019-01-12T04:14:05.542Z,95.83
2019-01-12T04:16:33.971Z,95.92
2019-01-12T04:19:02.451Z,95.95
2019-01-12T04:21:30.744Z,96.02
2019-01-12T04:23:59.105Z,96.06
2019-01-12T04:26:27.637Z,96.09
2019-01-12T04:28:55.890Z,96.09
2019-01-12T04:31:24.333Z,96.14
2019-01-12T04:33:52.813Z,95.88
2019-01-12T04:36:21.276Z,95.45
2019-01-12T04:38:49.661Z,95.23
2019-01-12T04:41:18.004Z,94.90
2019-01-12T04:43:46.503Z,94.91
2019-01-12T04:46:14.886Z,94.76
2019-01-12T04:48:43.379Z,94.33
2019-01-12T04:51:11.665Z,94.20
2019-01-12T04:53:39.984Z,94.09
2019-01-12T04:56:08.534Z,93.96
2019-01-12T04:58:36.897Z,93.89
2019-01-12T05:01:05.384Z,94.03
2019-01-12T05:03:33.693Z,93.94
2019-01-12T05:06:01.973Z,93.97
2019-01-12T05:08:30.441Z,93.86
2019-01-12T05:10:58.787Z,93.99
2019-01-12T05:13:27.219Z,94.03
2019-01-12T05:15:55.680Z,93.86
2019-01-12T05:18:23.974Z,93.64
2019-01-12T05:20:52.515Z,93.58
2019-01-12T05:23:20.783Z,93.67
2019-01-12T05:25:49.490Z,93.56
2019-01-12T05:28:18.315Z,93.22
2019-01-12T05:30:46.933Z,93.11
2019-01-12T05:33:15.408Z,92.86
2019-01-12T05:35:43.959Z,92.79
2019-01-12T05:38:12.326Z,92.70
2019-01-12T05:40:40.848Z,92.66
2019-01-12T05:43:09.130Z,92.69
2019-01-12T05:45:37.461Z,92.56
2019-01-12T05:48:05.987Z,92.52
2019-01-12T05:50:34.450Z,92.29
2019-01-12T05:53:02.786Z,92.30
2019-01-12T05:55:31.170Z,92.10
2019-01-12T05:57:59.649Z,91.76
2019-01-12T06:00:28.108Z,91.59
2019-01-12T06:02:56.620Z,91.29
2019-01-12T06:05:24.905Z,91.36
2019-01-12T06:07:59.170Z,91.47
2019-01-12T06:10:33.667Z,90.83
2019-01-12T06:13:09.449Z,90.52
2019-01-12T06:15:39.592Z,90.65
2019-01-12T06:18:09.324Z,90.81
2019-01-12T06:20:37.997Z,90.61
2019-01-12T06:23:06.651Z,90.73
2019-01-12T06:25:37.275Z,90.71
2019-01-12T06:28:05.911Z,90.56
2019-01-12T06:30:34.581Z,90.88
2019-01-12T06:33:03.424Z,91.11
2019-01-12T06:35:32.817Z,91.23
2019-01-12T06:38:02.963Z,91.35
2019-01-12T06:40:32.162Z,91.44
2019-01-12T06:43:00.591Z,91.34
2019-01-12T06:45:29.232Z,90.25
2019-01-12T06:47:57.891Z,90.55
2019-01-12T06:50:26.475Z,90.08
2019-01-12T06:52:55.230Z,90.85
2019-01-12T06:55:24.003Z,91.04
2019-01-12T06:57:52.433Z,90.95
2019-01-12T07:00:21.531Z,90.93
2019-01-12T07:02:50.144Z,90.87
2019-01-12T07:05:19.568Z,90.52
2019-01-12T07:07:48.054Z,90.87
2019-01-12T07:10:16.525Z,90.62
2019-01-12T07:12:45.072Z,90.73
2019-01-12T07:15:14.514Z,90.79
2019-01-12T07:17:42.827Z,90.67
2019-01-12T07:20:14.569Z,90.56
2019-01-12T07:22:52.757Z,90.70
2019-01-12T07:25:21.565Z,90.60
2019-01-12T07:27:49.992Z,90.64
2019-01-12T07:30:20.983Z,91.09
2019-01-12T07:32:49.390Z,91.19
2019-01-12T07:35:17.935Z,91.16
2019-01-12T07:37:46.350Z,91.03
2019-01-12T07:40:15.618Z,90.95
2019-01-12T07:42:44.028Z,91.14
2019-01-12T07:45:12.500Z,90.92
2019-01-12T07:47:40.928Z,91.21
2019-01-12T07:50:11.983Z,91.11
2019-01-12T07:52:40.475Z,91.05
2019-01-12T07:55:09.624Z,90.93
2019-01-12T07:57:39.126Z,90.44
2019-01-12T08:00:13.366Z,90.69
2019-01-12T08:02:41.944Z,90.40
2019-01-12T08:05:10.495Z,90.39
2019-01-12T08:07:38.890Z,90.25
2019-01-12T08:10:13.635Z,90.06
2019-01-12T08:12:42.155Z,90.18
2019-01-12T08:15:10.494Z,90.10
2019-01-12T08:17:39.009Z,89.96
2019-01-12T08:20:10.104Z,89.51
2019-01-12T08:22:38.456Z,89.99
2019-01-12T08:25:10.343Z,89.70
2019-01-12T08:27:38.913Z,89.89
2019-01-12T08:30:14.334Z,90.46
2019-01-12T08:32:48.127Z,90.95
2019-01-12T08:35:18.006Z,90.91
2019-01-12T08:37:47.263Z,91.21
2019-01-12T08:40:26.146Z,91.33
2019-01-12T08:42:56.471Z,91.09
2019-01-12T08:45:29.210Z,90.66
2019-01-12T08:47:58.165Z,90.54
2019-01-12T08:50:26.784Z,90.44
2019-01-12T08:52:55.235Z,89.90
2019-01-12T08:55:29.652Z,89.26
2019-01-12T08:58:01.523Z,89.64
2019-01-12T09:00:30.425Z,89.58
2019-01-12T09:03:00.820Z,89.41
2019-01-12T09:05:29.388Z,89.34
2019-01-12T09:07:58.451Z,89.56
2019-01-12T09:10:26.943Z,89.46
2019-01-12T09:12:56.289Z,89.92
2019-01-12T09:15:26.114Z,90.06
2019-01-12T09:17:57.049Z,90.35
2019-01-12T09:20:29.692Z,90.61
2019-01-12T09:23:02.089Z,91.64
2019-01-12T09:25:35.080Z,92.65
2019-01-12T09:28:10.461Z,93.59
2019-01-12T09:30:48.420Z,93.90
2019-01-12T09:33:13.752Z,94.33
2019-01-12T09:35:42.292Z,94.50
2019-01-12T09:38:10.943Z,94.81
2019-01-12T09:40:39.468Z,95.01
2019-01-12T09:43:07.880Z,95.14
2019-01-12T09:45:36.535Z,95.24
2019-01-12T09:48:04.962Z,95.37
2019-01-12T09:50:33.397Z,95.26
2019-01-12T09:53:01.886Z,95.30
2019-01-12T09:55:30.551Z,95.30
2019-01-12T09:57:59.006Z,95.34
2019-01-12T10:00:27.400Z,95.49
2019-01-12T10:02:55.878Z,95.64
2019-01-12T10:05:24.319Z,95.70
2019-01-12T10:07:52.916Z,95.60
2019-01-12T10:10:21.610Z,95.68
2019-01-12T10:12:50.061Z,95.92
2019-01-12T10:15:18.473Z,95.89
2019-01-12T10:17:46.972Z,96.08
2019-01-12T10:20:18.980Z,96.21
2019-01-12T10:23:05.880Z,96.21
2019-01-12T10:25:52.646Z,96.25
2019-01-12T10:28:27.092Z,96.27
2019-01-12T10:30:55.610Z,96.21
2019-01-12T10:33:23.899Z,96.27
2019-01-12T10:35:52.558Z,96.22
2019-01-12T10:38:20.882Z,96.20
2019-01-12T10:40:49.260Z,96.19
2019-01-12T10:43:17.606Z,96.27
2019-01-12T10:45:46.008Z,96.38
2019-01-12T10:48:14.336Z,96.38
2019-01-12T10:50:42.925Z,96.56
2019-01-12T10:53:11.589Z,96.64
2019-01-12T10:55:39.999Z,96.51
2019-01-12T10:58:08.375Z,96.51
2019-01-12T11:00:37.918Z,96.41
2019-01-12T11:03:06.707Z,96.42
2019-01-12T11:05:36.001Z,96.38
2019-01-12T11:08:04.537Z,96.36
2019-01-12T11:10:34.395Z,96.35
2019-01-12T11:13:02.954Z,96.26
2019-01-12T11:15:32.094Z,96.23
2019-01-12T11:18:01.155Z,96.40
2019-01-12T11:20:29.866Z,96.48
2019-01-12T11:22:59.062Z,96.27
2019-01-12T11:25:28.325Z,96.44
2019-01-12T11:27:56.651Z,96.48
2019-01-12T11:30:26.597Z,96.51
2019-01-12T11:32:56.282Z,96.52
2019-01-12T11:35:27.597Z,96.58
2019-01-12T11:37:55.989Z,96.51
2019-01-12T11:40:24.938Z,96.61
2019-01-12T11:42:53.509Z,96.70
2019-01-12T11:45:21.806Z,96.65
2019-01-12T11:47:50.139Z,96.66
2019-01-12T11:50:18.634Z,96.66
2019-01-12T11:52:47.075Z,96.72
2019-01-12T11:55:17.378Z,96.85
2019-01-12T11:57:45.785Z,96.77
2019-01-12T12:00:25.705Z,96.74
2019-01-12T12:02:54.508Z,96.78
2019-01-12T12:05:22.832Z,96.86
2019-01-12T12:07:51.387Z,96.84
2019-01-12T12:10:20.035Z,96.78
2019-01-12T12:12:48.385Z,96.89
2019-01-12T12:15:19.974Z,96.88
2019-01-12T12:17:51.978Z,96.93
2019-01-12T12:20:31.494Z,96.90
2019-01-12T12:23:12.882Z,96.86
2019-01-12T12:25:51.110Z,96.65
2019-01-12T12:28:33.654Z,96.64
2019-01-12T12:31:03.111Z,96.70
2019-01-12T12:33:31.436Z,96.73
2019-01-12T12:35:59.979Z,96.70
2019-01-12T12:38:28.280Z,96.74
2019-01-12T12:40:56.578Z,96.70
2019-01-12T12:43:24.969Z,96.66
2019-01-12T12:45:53.281Z,96.60
2019-01-12T12:48:21.573Z,96.54
2019-01-12T12:50:49.993Z,96.44
2019-01-12T12:53:18.917Z,96.45
2019-01-12T12:55:47.576Z,96.36
2019-01-12T12:58:16.025Z,96.23
2019-01-12T13:00:44.999Z,96.13
2019-01-12T13:03:14.274Z,96.11
2019-01-12T13:05:43.632Z,95.94
2019-01-12T13:08:13.529Z,95.89
2019-01-12T13:10:42.700Z,95.88
2019-01-12T13:13:11.505Z,96.03
2019-01-12T13:15:40.245Z,96.10
2019-01-12T13:18:09.125Z,96.23
2019-01-12T13:20:37.584Z,96.15
2019-01-12T13:23:06.378Z,95.98
2019-01-12T13:25:34.728Z,95.93
2019-01-12T13:28:03.031Z,95.85
2019-01-12T13:30:31.914Z,95.76
2019-01-12T13:33:00.461Z,95.65
2019-01-12T13:35:29.117Z,95.53
2019-01-12T13:37:58.279Z,95.36
2019-01-12T13:40:27.116Z,95.23
2019-01-12T13:42:55.893Z,95.00
2019-01-12T13:45:24.386Z,94.76
2019-01-12T13:47:53.376Z,94.65
2019-01-12T13:50:24.326Z,94.34
2019-01-12T13:52:52.984Z,94.22
2019-01-12T13:55:21.541Z,94.25
2019-01-12T13:57:50.122Z,94.35
2019-01-12T14:00:24.873Z,94.25
2019-01-12T14:02:53.599Z,94.15
2019-01-12T14:05:22.095Z,94.08
2019-01-12T14:07:56.249Z,93.98
2019-01-12T14:10:21.257Z,93.85
2019-01-12T14:12:50.170Z,93.89
2019-01-12T14:15:20.729Z,93.89
2019-01-12T14:18:03.945Z,93.91
2019-01-12T14:20:37.954Z,93.42
2019-01-12T14:23:06.835Z,93.52
2019-01-12T14:25:35.751Z,93.54
2019-01-12T14:28:04.983Z,93.35
2019-01-12T14:30:34.607Z,92.98
2019-01-12T14:33:03.549Z,92.55
2019-01-12T14:35:32.037Z,92.15
2019-01-12T14:38:00.601Z,92.32
2019-01-12T14:40:30.614Z,91.87
2019-01-12T14:43:05.830Z,91.50
2019-01-12T14:45:36.186Z,91.41
2019-01-12T14:48:07.900Z,91.67
2019-01-12T14:50:37.570Z,91.58
2019-01-12T14:53:07.921Z,91.38
2019-01-12T14:55:37.895Z,91.23
2019-01-12T14:58:06.594Z,91.25
2019-01-12T15:00:36.085Z,91.43
2019-01-12T15:03:05.836Z,91.67
2019-01-12T15:05:36.146Z,91.55
2019-01-12T15:08:06.056Z,91.65
2019-01-12T15:10:34.686Z,91.84
2019-01-12T15:13:03.658Z,91.98
2019-01-12T15:15:32.375Z,92.06
2019-01-12T15:18:01.224Z,92.29
2019-01-12T15:20:30.315Z,92.17
2019-01-12T15:23:00.448Z,92.25
2019-01-12T15:25:30.301Z,92.27
2019-01-12T15:28:00.246Z,92.38
2019-01-12T15:30:30.484Z,92.39
2019-01-12T15:32:59.372Z,92.41
2019-01-12T15:35:31.715Z,92.51
2019-01-12T15:38:01.971Z,92.78
2019-01-12T15:40:31.719Z,92.47
2019-01-12T15:43:01.384Z,92.45
2019-01-12T15:45:31.691Z,92.52
2019-01-12T15:48:01.208Z,92.53
2019-01-12T15:50:29.868Z,92.76
2019-01-12T15:52:58.903Z,92.71
2019-01-12T15:55:28.130Z,92.46
2019-01-12T15:57:57.927Z,92.49
2019-01-12T16:00:28.690Z,92.65
2019-01-12T16:02:57.790Z,92.79
2019-01-12T16:05:27.587Z,92.59
2019-01-12T16:07:57.004Z,92.78
2019-01-12T16:10:33.758Z,92.57
2019-01-12T16:13:07.302Z,92.46
2019-01-12T16:15:45.312Z,92.48
2019-01-12T16:18:17.409Z,92.46
2019-01-12T16:20:46.827Z,92.17
2019-01-12T16:23:18.756Z,92.22
2019-01-12T16:25:47.254Z,92.32
2019-01-12T16:28:23.021Z,92.47
2019-01-12T16:30:47.882Z,92.66
2019-01-12T16:33:16.458Z,92.61
2019-01-12T16:35:45.974Z,92.51
2019-01-12T16:38:15.916Z,92.54
2019-01-12T16:40:44.937Z,92.47
2019-01-12T16:43:13.300Z,92.37
2019-01-12T16:45:42.510Z,92.48
2019-01-12T16:48:10.870Z,92.75
2019-01-12T16:50:39.265Z,92.64
2019-01-12T16:53:07.843Z,92.76
2019-01-12T16:55:36.279Z,92.72
2019-01-12T16:58:04.896Z,93.07
2019-01-12T17:00:33.310Z,93.32
2019-01-12T17:03:01.830Z,93.35
2019-01-12T17:05:30.383Z,93.58
2019-01-12T17:07:58.811Z,93.59
2019-01-12T17:10:27.148Z,93.27
2019-01-12T17:12:55.588Z,93.17
2019-01-12T17:15:23.933Z,93.23
2019-01-12T17:17:52.213Z,93.33
2019-01-12T17:20:26.720Z,93.32
2019-01-12T17:22:58.342Z,93.14
2019-01-12T17:25:26.907Z,93.06
2019-01-12T17:27:55.451Z,93.30
2019-01-12T17:30:26.976Z,93.46
2019-01-12T17:32:55.406Z,93.71
2019-01-12T17:35:23.703Z,93.85
2019-01-12T17:37:52.045Z,94.14
2019-01-12T17:40:20.462Z,94.19
2019-01-12T17:42:48.815Z,94.14
2019-01-12T17:45:24.895Z,94.21
2019-01-12T17:47:53.236Z,94.34
2019-01-12T17:50:24.088Z,94.39
2019-01-12T17:52:52.439Z,94.44
2019-01-12T17:55:24.016Z,94.03
2019-01-12T17:57:52.457Z,94.15
2019-01-12T18:00:24.538Z,94.48
2019-01-12T18:02:53.168Z,94.46
2019-01-12T18:05:21.740Z,94.45
2019-01-12T18:07:50.184Z,94.67
2019-01-12T18:10:18.813Z,94.91
2019-01-12T18:13:02.342Z,94.97
2019-01-12T18:15:38.816Z,95.06
2019-01-12T18:18:08.177Z,95.21
2019-01-12T18:20:36.747Z,95.08
2019-01-12T18:23:05.207Z,94.76
2019-01-12T18:25:33.886Z,94.75
2019-01-12T18:28:03.081Z,94.93
2019-01-12T18:30:31.832Z,95.21
2019-01-12T18:33:00.585Z,95.48
2019-01-12T18:35:29.251Z,95.54
2019-01-12T18:37:57.943Z,95.79
2019-01-12T18:40:26.353Z,95.93
2019-01-12T18:42:54.804Z,95.78
2019-01-12T18:45:23.163Z,95.66
2019-01-12T18:47:51.736Z,95.55
2019-01-12T18:50:23.465Z,95.52
2019-01-12T18:52:51.954Z,95.54
2019-01-12T18:55:20.242Z,95.55
2019-01-12T18:57:48.635Z,95.42
2019-01-12T19:00:20.276Z,95.43
2019-01-12T19:02:48.827Z,95.42
2019-01-12T19:05:17.362Z,95.46
2019-01-12T19:07:45.847Z,95.50
2019-01-12T19:10:14.627Z,95.62
2019-01-12T19:12:43.160Z,95.72
2019-01-12T19:15:20.255Z,95.76
2019-01-12T19:17:48.595Z,95.73
2019-01-12T19:20:16.911Z,95.77
2019-01-12T19:22:45.519Z,95.78
2019-01-12T19:25:15.257Z,95.74
2019-01-12T19:27:43.704Z,95.70
2019-01-12T19:30:20.557Z,95.59
2019-01-12T19:32:49.164Z,95.52
2019-01-12T19:35:17.528Z,95.53
2019-01-12T19:37:46.045Z,95.51
2019-01-12T19:40:17.492Z,95.52
2019-01-12T19:42:45.994Z,95.46
2019-01-12T19:45:16.322Z,95.53
2019-01-12T19:47:44.748Z,95.57
2019-01-12T19:50:16.990Z,95.49
2019-01-12T19:52:45.507Z,95.42
2019-01-12T19:55:14.199Z,95.37
2019-01-12T19:57:43.122Z,95.40
2019-01-12T20:00:15.621Z,95.28
2019-01-12T20:02:44.087Z,95.32
2019-01-12T20:05:14.281Z,95.20
2019-01-12T20:07:43.625Z,95.14
2019-01-12T20:10:14.759Z,95.25
2019-01-12T20:12:43.468Z,95.35
2019-01-12T20:15:20.927Z,95.33
2019-01-12T20:17:50.712Z,95.26
2019-01-12T20:20:22.196Z,95.13
2019-01-12T20:22:52.356Z,95.09
2019-01-12T20:25:28.580Z,95.07
2019-01-12T20:27:57.413Z,94.94
2019-01-12T20:30:34.906Z,94.60
2019-01-12T20:33:19.450Z,94.68
2019-01-12T20:35:54.947Z,94.67
2019-01-12T20:38:26.963Z,94.59
2019-01-12T20:41:01.881Z,94.41
2019-01-12T20:43:33.492Z,94.26
2019-01-12T20:46:20.838Z,94.30
2019-01-12T20:48:52.507Z,94.45
2019-01-12T20:51:29.776Z,94.49
2019-01-12T20:54:01.445Z,94.37
2019-01-12T20:56:33.018Z,94.43
2019-01-12T20:59:14.280Z,94.44
2019-01-12T21:02:00.436Z,94.46
2019-01-12T21:04:33.137Z,94.51
2019-01-12T21:07:07.575Z,94.70
2019-01-12T21:10:10.916Z,94.77
2019-01-12T21:12:54.267Z,94.82
2019-01-12T21:15:25.998Z,94.92
2019-01-12T21:17:54.339Z,94.83
2019-01-12T21:20:22.796Z,94.82
2019-01-12T21:22:52.933Z,94.95
2019-01-12T21:25:22.296Z,94.93
2019-01-12T21:27:53.075Z,94.88
2019-01-12T21:30:21.564Z,94.93
2019-01-12T21:32:50.049Z,94.83
2019-01-12T21:35:18.567Z,94.87
2019-01-12T21:37:46.984Z,94.88
2019-01-12T21:40:16.384Z,95.00
2019-01-12T21:42:44.790Z,95.11
2019-01-12T21:45:14.916Z,95.10
2019-01-12T21:47:43.291Z,94.91
2019-01-12T21:50:16.830Z,94.80
2019-01-12T21:52:45.948Z,94.76
2019-01-12T21:55:16.111Z,94.71
2019-01-12T21:57:46.233Z,94.45
2019-01-12T22:00:18.496Z,94.38
2019-01-12T22:02:47.043Z,94.33
2019-01-12T22:05:17.714Z,94.22
2019-01-12T22:07:47.754Z,94.26
2019-01-12T22:10:19.594Z,94.33
2019-01-12T22:12:55.153Z,94.22
2019-01-12T22:15:24.467Z,94.17
2019-01-12T22:17:52.891Z,94.21
2019-01-12T22:20:23.253Z,94.19
2019-01-12T22:22:53.179Z,94.14
2019-01-12T22:25:23.150Z,94.21
2019-01-12T22:27:51.526Z,94.13
2019-01-12T22:30:19.990Z,94.07
2019-01-12T22:32:48.466Z,93.89
2019-01-12T22:35:16.877Z,93.84
2019-01-12T22:37:45.255Z,93.68
2019-01-12T22:40:21.131Z,93.85
2019-01-12T22:42:49.405Z,93.99
2019-01-12T22:45:17.801Z,93.99
2019-01-12T22:47:46.075Z,93.76
2019-01-12T22:50:17.378Z,93.65
2019-01-12T22:52:46.243Z,93.74
2019-01-12T22:55:15.012Z,93.66
2019-01-12T22:57:43.271Z,93.65
2019-01-12T23:00:39.517Z,93.73
2019-01-12T23:03:08.427Z,93.78
2019-01-12T23:05:36.866Z,93.70
2019-01-12T23:08:05.905Z,93.74
2019-01-12T23:10:35.091Z,93.50
2019-01-12T23:13:05.106Z,93.46
2019-01-12T23:15:35.252Z,93.20
2019-01-12T23:18:03.585Z,93.01
2019-01-12T23:20:31.972Z,93.00
2019-01-12T23:23:00.928Z,92.95
2019-01-12T23:25:31.462Z,92.95
2019-01-12T23:28:01.120Z,92.81
2019-01-12T23:30:31.285Z,92.92
2019-01-12T23:33:00.045Z,92.80
2019-01-12T23:35:28.531Z,92.82
2019-01-12T23:37:56.879Z,92.89
2019-01-12T23:40:25.141Z,92.59
2019-01-12T23:42:53.493Z,92.51
2019-01-12T23:45:21.769Z,92.59
2019-01-12T23:47:50.052Z,92.58
2019-01-12T23:50:18.369Z,92.74
2019-01-12T23:52:46.784Z,92.99
2019-01-12T23:55:15.051Z,93.26
2019-01-12T23:57:43.457Z,93.20
